Achim Manz-Bothe 30:00 row

7,736

Meters

30:00.0

Time

1:56.3

Pace

518

Calories

144

Heart Rate

Average Watts222
Calories Per Hour1036
Stroke Rate30

December 20, 2019 13:27:00

Workout
RowErg

Workout Type
Fixed Time

Weight Class
Hwt

Verified
Yes

Ranked
No

Entered
Concept2 Utility

Splits

Time Meters Pace Watts Cal/Hr Cal S/M
30:00.0 7,736 1:56.3 222 1036 518 30 144
1:00.0 255 1:57.6 215 1020 17 31 129
2:00.0 254 1:58.1 212 1020 17 30 137
3:00.0 255 1:57.6 215 1020 17 30 136
4:00.0 249 2:00.4 200 960 16 28 134
5:00.0 255 1:57.6 215 1020 17 30 138
6:00.0 255 1:57.6 215 1020 17 30 139
7:00.0 255 1:57.6 215 1020 17 30 140
8:00.0 256 1:57.1 217 1020 17 30 137
9:00.0 256 1:57.1 217 1020 17 30 142
10:00.0 257 1:56.7 220 1020 17 31 142
11:00.0 257 1:56.7 220 1020 17 29 142
12:00.0 257 1:56.7 220 1020 17 31 144
13:00.0 258 1:56.2 223 1020 17 30 145
14:00.0 258 1:56.2 223 1020 17 30 146
15:00.0 259 1:55.8 225 1020 17 29 146
16:00.0 258 1:56.2 223 1020 17 30 144
17:00.0 257 1:56.7 220 1020 17 30 147
18:00.0 258 1:56.2 223 1020 17 30 146
19:00.0 257 1:56.7 220 1020 17 31 145
20:00.0 258 1:56.2 223 1020 17 29 148
21:00.0 258 1:56.2 223 1020 17 30 148
22:00.0 260 1:55.3 228 1080 18 30 148
23:00.0 260 1:55.3 228 1080 18 31 149
24:00.0 261 1:54.9 230 1080 18 30 150
25:00.0 261 1:54.9 230 1080 18 30 152
26:00.0 262 1:54.5 233 1080 18 30 152
27:00.0 264 1:53.6 239 1080 18 31 153
28:00.0 262 1:54.5 233 1080 18 31 153
29:00.0 261 1:54.9 230 1080 18 30 153
30:00.0 262 1:54.5 233 1080 18 30 154